createdAt,value
2024-05-09T00:00:40.584Z,8.44
2024-05-09T00:01:38.989Z,8.44
2024-05-09T00:02:38.992Z,8.48
2024-05-09T00:03:39.084Z,8.43
2024-05-09T00:04:39.018Z,8.38
2024-05-09T00:05:39.126Z,8.48
2024-05-09T00:06:38.886Z,8.47
2024-05-09T00:07:38.847Z,8.47
2024-05-09T00:08:38.941Z,8.38
2024-05-09T00:09:38.829Z,8.41
2024-05-09T00:10:40.040Z,8.30
2024-05-09T00:11:38.904Z,8.29
2024-05-09T00:12:38.776Z,8.36
2024-05-09T00:13:38.828Z,8.29
2024-05-09T00:14:39.069Z,8.33
2024-05-09T00:15:38.842Z,8.29
2024-05-09T00:16:38.722Z,8.18
2024-05-09T00:17:38.970Z,8.28
2024-05-09T00:18:38.812Z,8.18
2024-05-09T00:19:38.956Z,8.18
2024-05-09T00:20:40.948Z,8.20
2024-05-09T00:21:38.653Z,8.22
2024-05-09T00:22:38.786Z,8.19
2024-05-09T00:23:38.734Z,8.15
2024-05-09T00:24:38.671Z,8.23
2024-05-09T00:25:38.663Z,8.16
2024-05-09T00:26:38.723Z,8.19
2024-05-09T00:27:38.644Z,8.15
2024-05-09T00:28:38.670Z,8.12
2024-05-09T00:29:38.657Z,8.08
2024-05-09T00:30:38.674Z,8.04
2024-05-09T00:31:38.576Z,7.98
2024-05-09T00:32:38.755Z,8.05
2024-05-09T00:33:38.787Z,8.05
2024-05-09T00:34:38.512Z,8.01
2024-05-09T00:35:38.991Z,8.02
2024-05-09T00:36:38.533Z,8.04
2024-05-09T00:37:38.499Z,8.05
2024-05-09T00:38:38.526Z,7.92
2024-05-09T00:39:38.501Z,7.97
2024-05-09T00:40:41.123Z,7.90
2024-05-09T00:41:38.532Z,7.87
2024-05-09T00:42:38.474Z,7.92
2024-05-09T00:43:38.418Z,7.86
2024-05-09T00:44:38.513Z,7.86
2024-05-09T00:45:38.408Z,7.83
2024-05-09T00:46:38.416Z,7.92
2024-05-09T00:47:38.534Z,7.85
2024-05-09T00:48:38.590Z,7.80
2024-05-09T00:49:38.454Z,7.80
2024-05-09T00:50:38.886Z,7.82
2024-05-09T00:51:38.343Z,7.79
2024-05-09T00:52:38.319Z,7.74
2024-05-09T00:53:38.408Z,7.80
2024-05-09T00:54:38.299Z,7.75
2024-05-09T00:55:38.335Z,7.77
2024-05-09T00:56:38.434Z,7.77
2024-05-09T00:57:38.281Z,7.69
2024-05-09T00:58:38.243Z,7.63
2024-05-09T00:59:38.437Z,7.60
2024-05-09T01:00:40.487Z,7.60
2024-05-09T01:01:38.275Z,7.57
2024-05-09T01:02:38.464Z,7.61
2024-05-09T01:03:38.598Z,7.63
2024-05-09T01:04:38.707Z,7.60
2024-05-09T01:05:38.239Z,7.46
2024-05-09T01:06:38.153Z,7.53
2024-05-09T01:07:38.134Z,7.53
2024-05-09T01:08:38.331Z,7.46
2024-05-09T01:09:38.139Z,7.45
2024-05-09T01:10:38.125Z,7.48
2024-05-09T01:11:38.329Z,7.45
2024-05-09T01:12:38.121Z,7.42
2024-05-09T01:13:38.081Z,7.37
2024-05-09T01:14:38.180Z,7.42
2024-05-09T01:15:38.066Z,7.35
2024-05-09T01:16:38.043Z,7.34
2024-05-09T01:17:38.229Z,7.39
2024-05-09T01:18:38.167Z,7.40
2024-05-09T01:19:38.074Z,7.32
2024-05-09T01:20:42.295Z,7.34
2024-05-09T01:21:39.076Z,7.40
2024-05-09T01:22:37.984Z,7.40
2024-05-09T01:23:38.100Z,7.40
2024-05-09T01:24:37.950Z,7.32
2024-05-09T01:25:38.064Z,7.32
2024-05-09T01:26:38.011Z,7.34
2024-05-09T01:27:37.957Z,7.28
2024-05-09T01:28:37.936Z,7.31
2024-05-09T01:29:37.959Z,7.25
2024-05-09T01:30:38.574Z,7.27
2024-05-09T01:31:37.929Z,7.35
2024-05-09T01:32:38.004Z,7.31
2024-05-09T01:33:38.352Z,7.28
2024-05-09T01:34:37.887Z,7.30
2024-05-09T01:35:38.053Z,7.34
2024-05-09T01:36:37.820Z,7.31
2024-05-09T01:37:37.846Z,7.31
2024-05-09T01:38:37.812Z,7.30
2024-05-09T01:39:37.844Z,7.32
2024-05-09T01:40:40.015Z,7.25
2024-05-09T01:41:37.772Z,7.21
2024-05-09T01:42:37.775Z,7.28
2024-05-09T01:43:37.741Z,7.24
2024-05-09T01:44:37.929Z,7.24
2024-05-09T01:45:37.787Z,7.25
2024-05-09T01:46:37.751Z,7.24
2024-05-09T01:47:37.833Z,7.21
2024-05-09T01:48:37.809Z,7.13
2024-05-09T01:49:37.737Z,7.10
2024-05-09T01:50:41.190Z,7.12
2024-05-09T01:51:38.670Z,7.10
2024-05-09T01:52:37.642Z,7.13
2024-05-09T01:53:37.716Z,7.23
2024-05-09T01:54:38.224Z,7.13
2024-05-09T01:55:37.689Z,7.07
2024-05-09T01:56:37.700Z,7.09
2024-05-09T01:57:37.591Z,7.15
2024-05-09T01:58:37.603Z,6.94
2024-05-09T01:59:37.652Z,7.03
2024-05-09T02:00:41.269Z,7.12
2024-05-09T02:01:55.804Z,6.99
2024-05-09T02:02:38.701Z,7.10
2024-05-09T02:03:37.782Z,7.02
2024-05-09T02:04:37.624Z,7.06
2024-05-09T02:05:37.551Z,7.02
2024-05-09T02:06:37.642Z,7.03
2024-05-09T02:07:37.532Z,6.99
2024-05-09T02:08:37.532Z,6.95
2024-05-09T02:09:37.513Z,6.95
2024-05-09T02:10:37.470Z,6.92
2024-05-09T02:11:37.538Z,6.89
2024-05-09T02:12:37.462Z,6.88
2024-05-09T02:13:37.433Z,6.87
2024-05-09T02:14:37.558Z,6.84
2024-05-09T02:15:37.406Z,6.91
2024-05-09T02:16:37.382Z,6.85
2024-05-09T02:17:37.658Z,6.77
2024-05-09T02:18:37.487Z,6.79
2024-05-09T02:19:37.414Z,6.81
2024-05-09T02:20:37.446Z,6.84
2024-05-09T02:21:37.408Z,6.74
2024-05-09T02:22:37.328Z,6.77
2024-05-09T02:23:37.327Z,6.77
2024-05-09T02:24:37.315Z,6.77
2024-05-09T02:25:37.279Z,6.73
2024-05-09T02:26:37.319Z,6.74
2024-05-09T02:27:37.306Z,6.79
2024-05-09T02:28:37.294Z,6.76
2024-05-09T02:29:37.363Z,6.77
2024-05-09T02:30:40.609Z,6.77
2024-05-09T02:31:37.213Z,6.80
2024-05-09T02:32:37.426Z,6.69
2024-05-09T02:33:37.638Z,6.69
2024-05-09T02:34:37.238Z,6.77
2024-05-09T02:35:37.214Z,6.69
2024-05-09T02:36:37.148Z,6.74
2024-05-09T02:37:37.197Z,6.73
2024-05-09T02:38:37.346Z,6.67
2024-05-09T02:39:37.146Z,6.66
2024-05-09T02:40:39.118Z,6.73
2024-05-09T02:41:37.133Z,6.66
2024-05-09T02:42:37.119Z,6.67
2024-05-09T02:43:37.093Z,6.64
2024-05-09T02:44:37.090Z,6.70
2024-05-09T02:45:37.113Z,6.62
2024-05-09T02:46:37.063Z,6.67
2024-05-09T02:47:37.305Z,6.66
2024-05-09T02:48:37.354Z,6.61
2024-05-09T02:49:37.166Z,6.66
2024-05-09T02:50:39.490Z,6.59
2024-05-09T02:51:36.984Z,6.55
2024-05-09T02:52:37.063Z,6.61
2024-05-09T02:53:37.180Z,6.48
2024-05-09T02:54:36.976Z,6.55
2024-05-09T02:55:36.956Z,6.61
2024-05-09T02:56:37.111Z,6.56
2024-05-09T02:57:36.961Z,6.55
2024-05-09T02:58:36.942Z,6.55
2024-05-09T02:59:36.998Z,6.49
2024-05-09T03:00:40.404Z,6.48
2024-05-09T03:01:38.020Z,6.49
2024-05-09T03:02:36.983Z,6.43
2024-05-09T03:03:37.200Z,6.54
2024-05-09T03:04:36.878Z,6.40
2024-05-09T03:05:37.302Z,6.46
2024-05-09T03:06:36.865Z,6.41
2024-05-09T03:07:36.812Z,6.43
2024-05-09T03:08:36.860Z,6.48
2024-05-09T03:09:36.820Z,6.52
2024-05-09T03:10:38.800Z,6.43
2024-05-09T03:11:36.936Z,6.44
2024-05-09T03:12:39.028Z,6.41
2024-05-09T03:13:36.736Z,6.43
2024-05-09T03:14:36.757Z,6.38
2024-05-09T03:15:36.955Z,6.38
2024-05-09T03:16:36.762Z,6.33
2024-05-09T03:17:37.056Z,6.36
2024-05-09T03:18:36.848Z,6.33
2024-05-09T03:19:36.765Z,6.37
2024-05-09T03:20:37.291Z,6.33
2024-05-09T03:21:36.647Z,6.27
2024-05-09T03:22:36.640Z,6.21
2024-05-09T03:23:36.698Z,6.27
2024-05-09T03:24:36.693Z,6.31
2024-05-09T03:25:36.700Z,6.34
2024-05-09T03:26:36.666Z,6.34
2024-05-09T03:27:36.592Z,6.38
2024-05-09T03:28:36.624Z,6.34
2024-05-09T03:29:36.598Z,6.28
2024-05-09T03:30:41.457Z,6.33
2024-05-09T03:31:37.589Z,6.30
2024-05-09T03:32:36.719Z,6.31
2024-05-09T03:33:36.877Z,6.27
2024-05-09T03:34:36.511Z,6.27
2024-05-09T03:35:36.544Z,6.30
2024-05-09T03:36:36.505Z,6.28
2024-05-09T03:37:36.475Z,6.27
2024-05-09T03:38:36.567Z,6.28
2024-05-09T03:39:36.484Z,6.22
2024-05-09T03:40:36.446Z,6.17
2024-05-09T03:41:36.492Z,6.28
2024-05-09T03:42:36.440Z,6.33
2024-05-09T03:43:36.424Z,6.30
2024-05-09T03:44:36.411Z,6.36
2024-05-09T03:45:36.406Z,6.28
2024-05-09T03:46:36.373Z,6.31
2024-05-09T03:47:36.504Z,6.31
2024-05-09T03:48:36.491Z,6.30
2024-05-09T03:49:36.456Z,6.27
2024-05-09T03:50:37.246Z,6.27
2024-05-09T03:51:36.329Z,6.33
2024-05-09T03:52:36.339Z,6.25
2024-05-09T03:53:36.387Z,6.33
2024-05-09T03:54:36.310Z,6.37
2024-05-09T03:55:36.277Z,6.43
2024-05-09T03:56:36.353Z,6.46
2024-05-09T03:57:36.412Z,6.41
2024-05-09T03:58:36.254Z,6.43
2024-05-09T03:59:36.269Z,6.43
2024-05-09T04:00:39.046Z,6.49
2024-05-09T04:01:36.304Z,6.49
2024-05-09T04:02:36.307Z,6.48
2024-05-09T04:03:36.400Z,6.44
2024-05-09T04:04:36.274Z,6.44
2024-05-09T04:05:36.311Z,6.46
2024-05-09T04:06:36.180Z,6.44
2024-05-09T04:07:36.122Z,6.48
2024-05-09T04:08:36.190Z,6.44
2024-05-09T04:09:36.095Z,6.52
2024-05-09T04:10:36.150Z,6.48
2024-05-09T04:11:36.184Z,6.52
2024-05-09T04:12:36.074Z,6.52
2024-05-09T04:13:36.119Z,6.48
2024-05-09T04:14:36.171Z,6.54
2024-05-09T04:15:36.043Z,6.52
2024-05-09T04:16:36.035Z,6.48
2024-05-09T04:17:36.373Z,6.52
2024-05-09T04:18:36.143Z,6.46
2024-05-09T04:19:36.040Z,6.46
2024-05-09T04:20:39.420Z,6.48
2024-05-09T04:21:36.999Z,6.56
2024-05-09T04:22:35.987Z,6.54
2024-05-09T04:23:36.051Z,6.46
2024-05-09T04:24:36.051Z,6.52
2024-05-09T04:25:35.957Z,6.59
2024-05-09T04:26:35.954Z,6.52
2024-05-09T04:27:35.943Z,6.56
2024-05-09T04:28:35.890Z,6.56
2024-05-09T04:29:36.012Z,6.58
2024-05-09T04:30:39.331Z,6.67
2024-05-09T04:31:36.891Z,6.66
2024-05-09T04:32:36.094Z,6.67
2024-05-09T04:33:36.204Z,6.66
2024-05-09T04:34:35.859Z,6.73
2024-05-09T04:35:35.931Z,6.70
2024-05-09T04:36:35.804Z,6.74
2024-05-09T04:37:35.782Z,6.77
2024-05-09T04:38:35.817Z,6.77
2024-05-09T04:39:35.764Z,6.84
2024-05-09T04:40:37.255Z,6.80
2024-05-09T04:41:35.868Z,6.73
2024-05-09T04:42:35.771Z,6.81
2024-05-09T04:43:35.810Z,6.77
2024-05-09T04:44:35.790Z,6.76
2024-05-09T04:45:35.996Z,6.73
2024-05-09T04:46:35.714Z,6.84
2024-05-09T04:47:35.931Z,6.80
2024-05-09T04:48:35.732Z,6.84
2024-05-09T04:49:35.786Z,6.79
2024-05-09T04:50:38.695Z,6.79
2024-05-09T04:51:35.637Z,6.87
2024-05-09T04:52:35.669Z,6.88
2024-05-09T04:53:35.715Z,6.92
2024-05-09T04:54:36.654Z,6.91
2024-05-09T04:55:35.579Z,6.92
2024-05-09T04:56:35.615Z,6.94
2024-05-09T04:57:35.590Z,6.88
2024-05-09T04:58:35.611Z,7.02
2024-05-09T04:59:35.580Z,6.91
2024-05-09T05:00:37.653Z,7.06
2024-05-09T05:01:35.601Z,7.03
2024-05-09T05:02:35.609Z,7.03
2024-05-09T05:03:35.697Z,7.09
2024-05-09T05:04:35.543Z,7.10
2024-05-09T05:05:35.557Z,7.13
2024-05-09T05:06:35.479Z,7.21
2024-05-09T05:07:35.484Z,7.20
2024-05-09T05:08:35.572Z,7.30
2024-05-09T05:09:35.439Z,7.27
2024-05-09T05:10:36.815Z,7.32
2024-05-09T05:11:35.740Z,7.37
2024-05-09T05:12:35.759Z,7.45
2024-05-09T05:13:37.865Z,7.49
2024-05-09T05:14:35.442Z,7.50
2024-05-09T05:15:35.363Z,7.60
2024-05-09T05:16:35.370Z,7.74
2024-05-09T05:17:35.560Z,8.11
2024-05-09T05:18:35.436Z,8.47
2024-05-09T05:19:35.694Z,8.73
2024-05-09T05:20:35.381Z,8.95
2024-05-09T05:21:35.317Z,9.23
2024-05-09T05:22:35.270Z,9.56
2024-05-09T05:23:35.449Z,9.58
2024-05-09T05:24:35.268Z,9.94
2024-05-09T05:25:35.292Z,10.20
2024-05-09T05:26:35.364Z,10.44
2024-05-09T05:27:35.223Z,10.51
2024-05-09T05:28:35.226Z,10.36
2024-05-09T05:29:35.381Z,10.40
2024-05-09T05:30:35.393Z,10.32
2024-05-09T05:31:35.248Z,10.26
2024-05-09T05:32:35.285Z,10.20
2024-05-09T05:33:35.357Z,10.22
2024-05-09T05:34:35.171Z,10.34
2024-05-09T05:35:35.281Z,10.63
2024-05-09T05:36:35.160Z,10.74
2024-05-09T05:37:35.134Z,11.10
2024-05-09T05:38:35.138Z,11.42
2024-05-09T05:39:35.230Z,11.86
2024-05-09T05:40:43.199Z,12.13
2024-05-09T05:41:35.091Z,12.38
2024-05-09T05:42:35.037Z,12.60
2024-05-09T05:43:35.067Z,12.57
2024-05-09T05:44:35.083Z,12.42
2024-05-09T05:45:35.061Z,12.64
2024-05-09T05:46:35.008Z,12.86
2024-05-09T05:47:35.269Z,13.08
2024-05-09T05:48:35.131Z,13.29
2024-05-09T05:49:35.062Z,13.51
2024-05-09T05:50:37.384Z,13.60
2024-05-09T05:51:34.948Z,13.51
2024-05-09T05:52:34.941Z,13.54
2024-05-09T05:53:35.086Z,13.70
2024-05-09T05:54:34.932Z,13.81
2024-05-09T05:55:34.910Z,14.00
2024-05-09T05:56:34.984Z,14.10
2024-05-09T05:57:34.876Z,14.18
2024-05-09T05:58:34.871Z,14.24
2024-05-09T05:59:34.984Z,14.17
2024-05-09T06:00:38.553Z,14.25
2024-05-09T06:01:35.880Z,14.09
2024-05-09T06:02:34.938Z,14.14
2024-05-09T06:03:34.951Z,14.09
2024-05-09T06:04:34.849Z,14.00
2024-05-09T06:05:34.851Z,13.88
2024-05-09T06:06:34.800Z,13.97
2024-05-09T06:07:34.794Z,14.02
2024-05-09T06:08:34.876Z,14.12
2024-05-09T06:09:34.750Z,14.15
2024-05-09T06:10:38.880Z,14.25
2024-05-09T06:11:35.796Z,14.17
2024-05-09T06:12:34.720Z,14.00
2024-05-09T06:13:34.707Z,14.06
2024-05-09T06:14:34.862Z,14.20
2024-05-09T06:15:34.729Z,14.33
2024-05-09T06:16:34.684Z,14.39
2024-05-09T06:17:34.833Z,14.12
2024-05-09T06:18:34.980Z,14.15
2024-05-09T06:19:34.685Z,14.18
2024-05-09T06:20:37.368Z,14.07
2024-05-09T06:21:34.824Z,14.15
2024-05-09T06:22:34.633Z,14.24
2024-05-09T06:23:34.784Z,14.29
2024-05-09T06:24:34.585Z,14.51
2024-05-09T06:25:34.662Z,14.37
2024-05-09T06:26:34.632Z,14.32
2024-05-09T06:27:34.596Z,14.32
2024-05-09T06:28:34.522Z,14.43
2024-05-09T06:29:34.581Z,14.29
2024-05-09T06:30:38.962Z,14.42
2024-05-09T06:31:35.600Z,14.50
2024-05-09T06:32:34.535Z,14.72
2024-05-09T06:33:34.763Z,14.78
2024-05-09T06:34:34.659Z,14.89
2024-05-09T06:35:34.758Z,15.01
2024-05-09T06:36:34.468Z,15.19
2024-05-09T06:37:34.439Z,15.23
2024-05-09T06:38:34.577Z,15.23
2024-05-09T06:39:34.422Z,15.21
2024-05-09T06:40:38.305Z,15.27
2024-05-09T06:41:35.428Z,15.34
2024-05-09T06:42:34.384Z,15.32
2024-05-09T06:43:34.362Z,15.34
2024-05-09T06:44:34.392Z,15.57
2024-05-09T06:45:34.354Z,15.67
2024-05-09T06:46:34.318Z,15.69
2024-05-09T06:47:34.503Z,15.69
2024-05-09T06:48:34.500Z,15.80
2024-05-09T06:49:34.325Z,15.60
2024-05-09T06:50:37.785Z,15.78
2024-05-09T06:51:35.272Z,15.72
2024-05-09T06:52:34.253Z,15.94
2024-05-09T06:53:34.422Z,16.20
2024-05-09T06:54:34.250Z,16.43
2024-05-09T06:55:34.213Z,16.33
2024-05-09T06:56:34.255Z,16.42
2024-05-09T06:57:34.196Z,16.48
2024-05-09T06:58:34.181Z,16.49
2024-05-09T06:59:34.388Z,16.64
2024-05-09T07:00:38.679Z,16.57
2024-05-09T07:01:35.213Z,16.63
2024-05-09T07:02:34.286Z,16.75
2024-05-09T07:03:34.276Z,16.75
2024-05-09T07:04:34.240Z,16.86
2024-05-09T07:05:34.190Z,16.89
2024-05-09T07:06:34.098Z,17.01
2024-05-09T07:07:34.078Z,16.93
2024-05-09T07:08:34.282Z,16.75
2024-05-09T07:09:34.070Z,16.71
2024-05-09T07:10:35.666Z,16.86
2024-05-09T07:11:34.241Z,16.98
2024-05-09T07:12:34.199Z,17.07
2024-05-09T07:13:34.022Z,17.06
2024-05-09T07:14:36.028Z,17.14
2024-05-09T07:15:33.994Z,17.22
2024-05-09T07:16:33.985Z,17.19
2024-05-09T07:17:34.278Z,17.38
2024-05-09T07:18:34.103Z,17.48
2024-05-09T07:19:34.026Z,17.71
2024-05-09T07:20:35.137Z,17.62
2024-05-09T07:21:33.961Z,17.59
2024-05-09T07:22:33.933Z,17.41
2024-05-09T07:23:34.234Z,17.40
2024-05-09T07:24:33.898Z,17.63
2024-05-09T07:25:33.886Z,17.71
2024-05-09T07:26:33.961Z,17.58
2024-05-09T07:27:33.986Z,17.41
2024-05-09T07:28:33.914Z,17.40
2024-05-09T07:29:36.281Z,17.49
2024-05-09T07:30:34.958Z,17.34
2024-05-09T07:31:33.827Z,17.64
2024-05-09T07:32:34.012Z,17.70
2024-05-09T07:33:33.943Z,17.95
2024-05-09T07:34:33.922Z,17.97
2024-05-09T07:35:33.990Z,18.23
2024-05-09T07:36:33.770Z,18.45
2024-05-09T07:37:33.805Z,18.75
2024-05-09T07:38:33.777Z,18.67
2024-05-09T07:39:33.720Z,18.55
2024-05-09T07:40:36.545Z,18.54
2024-05-09T07:41:33.924Z,18.48
2024-05-09T07:42:33.859Z,18.55
2024-05-09T07:43:33.689Z,18.65
2024-05-09T07:44:33.744Z,18.50
2024-05-09T07:50:34.292Z,18.94
2024-05-09T07:52:23.114Z,19.28
2024-05-09T07:53:33.202Z,19.44
2024-05-09T07:53:42.057Z,19.51
2024-05-09T07:54:34.714Z,19.68
2024-05-09T07:55:33.621Z,19.68
2024-05-09T07:56:33.641Z,19.65
2024-05-09T07:57:33.529Z,19.73
2024-05-09T07:58:33.536Z,19.83
2024-05-09T07:59:37.628Z,19.69
2024-05-09T08:00:33.649Z,19.71
2024-05-09T08:01:33.658Z,19.78
2024-05-09T08:02:33.693Z,19.81
2024-05-09T08:03:33.749Z,19.80
2024-05-09T08:04:33.603Z,19.71
2024-05-09T08:05:33.636Z,19.65
2024-05-09T08:06:33.471Z,19.54
2024-05-09T08:07:33.438Z,19.76
2024-05-09T08:08:33.422Z,19.99
2024-05-09T08:09:34.656Z,20.16
2024-05-09T08:10:33.394Z,20.29
2024-05-09T08:11:33.410Z,20.57
2024-05-09T08:12:33.368Z,20.76
2024-05-09T08:13:33.372Z,20.80
2024-05-09T08:14:33.377Z,20.74
2024-05-09T08:15:33.382Z,20.36
2024-05-09T08:16:33.379Z,20.48
2024-05-09T08:17:33.444Z,20.64
2024-05-09T08:18:33.573Z,20.32
2024-05-09T08:19:33.293Z,19.95
2024-05-09T08:20:35.310Z,19.78
2024-05-09T08:21:33.307Z,19.74
2024-05-09T08:22:33.239Z,19.91
2024-05-09T08:23:33.239Z,19.83
2024-05-09T08:24:33.255Z,20.01
2024-05-09T08:25:33.219Z,19.96
2024-05-09T08:26:33.221Z,20.03
2024-05-09T08:27:33.231Z,20.01
2024-05-09T08:28:33.198Z,20.13
2024-05-09T08:29:33.171Z,20.16
2024-05-09T08:30:37.007Z,20.33
2024-05-09T08:31:34.317Z,20.64
2024-05-09T08:32:33.214Z,20.64
2024-05-09T08:33:33.442Z,20.39
2024-05-09T08:34:33.234Z,20.20
2024-05-09T08:35:33.123Z,20.16
2024-05-09T08:36:33.144Z,20.10
2024-05-09T08:37:37.919Z,20.24
2024-05-09T08:38:33.103Z,20.31
2024-05-09T08:39:33.120Z,20.48
2024-05-09T08:40:35.984Z,20.48
2024-05-09T08:41:33.055Z,20.54
2024-05-09T08:42:33.075Z,20.69
2024-05-09T08:43:33.018Z,20.84
2024-05-09T08:44:33.031Z,20.88
2024-05-09T08:45:33.007Z,20.82
2024-05-09T08:46:33.053Z,20.73
2024-05-09T08:47:33.016Z,20.66
2024-05-09T08:48:33.286Z,20.43
2024-05-09T08:49:33.016Z,20.47
2024-05-09T08:50:38.494Z,20.69
2024-05-09T08:51:33.955Z,20.58
2024-05-09T08:52:32.913Z,20.69
2024-05-09T08:53:32.899Z,20.70
2024-05-09T08:54:32.901Z,20.69
2024-05-09T08:55:32.954Z,20.72
2024-05-09T08:56:32.918Z,20.67
2024-05-09T08:57:32.892Z,20.66
2024-05-09T08:58:32.844Z,20.52
2024-05-09T08:59:32.865Z,20.35
2024-05-09T09:00:36.968Z,20.67
2024-05-09T09:01:33.921Z,20.72
2024-05-09T09:02:33.331Z,20.91
2024-05-09T09:03:32.977Z,20.85
2024-05-09T09:04:32.888Z,20.59
2024-05-09T09:05:32.915Z,20.61
2024-05-09T09:06:32.765Z,20.55
2024-05-09T09:07:32.787Z,20.80
2024-05-09T09:08:32.783Z,21.16
2024-05-09T09:09:32.761Z,21.43
2024-05-09T09:10:33.471Z,21.17
2024-05-09T09:11:32.771Z,20.92
2024-05-09T09:12:32.751Z,20.91
2024-05-09T09:13:32.684Z,21.06
2024-05-09T09:14:32.713Z,21.10
2024-05-09T09:15:33.209Z,20.85
2024-05-09T09:16:32.694Z,21.01
2024-05-09T09:17:32.749Z,21.01
2024-05-09T09:18:33.047Z,21.13
2024-05-09T09:19:32.673Z,21.22
2024-05-09T09:20:36.514Z,21.19
2024-05-09T09:21:32.671Z,20.77
2024-05-09T09:22:32.573Z,20.76
2024-05-09T09:23:32.580Z,20.77
2024-05-09T09:24:32.710Z,20.94
2024-05-09T09:25:32.534Z,20.85
2024-05-09T09:26:32.548Z,20.85
2024-05-09T09:27:32.533Z,20.84
2024-05-09T09:28:32.527Z,21.13
2024-05-09T09:29:32.495Z,21.49
2024-05-09T09:30:37.299Z,21.37
2024-05-09T09:31:32.501Z,21.17
2024-05-09T09:32:32.578Z,21.27
2024-05-09T09:33:32.964Z,20.97
2024-05-09T09:34:32.681Z,20.99
2024-05-09T09:35:32.429Z,20.89
2024-05-09T09:36:32.448Z,20.84
2024-05-09T09:37:32.421Z,20.80
2024-05-09T09:38:32.459Z,20.74
2024-05-09T09:39:32.428Z,20.57
2024-05-09T09:40:34.806Z,20.70
2024-05-09T09:41:32.365Z,20.85
2024-05-09T09:42:32.426Z,20.80
2024-05-09T09:43:32.344Z,20.89
2024-05-09T09:44:33.071Z,20.97
2024-05-09T09:45:32.370Z,20.97
2024-05-09T09:46:32.343Z,20.94
2024-05-09T09:47:32.418Z,20.87
2024-05-09T09:48:32.526Z,20.87
2024-05-09T09:49:32.338Z,20.70
2024-05-09T09:50:34.805Z,20.52
2024-05-09T09:51:32.286Z,20.61
2024-05-09T09:52:32.347Z,20.77
2024-05-09T09:53:32.222Z,20.97
2024-05-09T09:54:32.305Z,20.80
2024-05-09T09:55:32.202Z,20.92
2024-05-09T09:56:32.232Z,20.99
2024-05-09T09:57:32.253Z,20.94
2024-05-09T09:58:32.209Z,20.82
2024-05-09T09:59:32.157Z,20.77
2024-05-09T10:00:33.491Z,20.59
2024-05-09T10:01:32.269Z,20.89
2024-05-09T10:02:32.352Z,20.94
2024-05-09T10:03:32.347Z,20.77
2024-05-09T10:04:32.213Z,20.85
2024-05-09T10:05:32.316Z,20.95
2024-05-09T10:06:32.139Z,21.01
2024-05-09T10:07:32.071Z,21.06
2024-05-09T10:08:32.075Z,20.89
2024-05-09T10:09:32.120Z,20.70
2024-05-09T10:10:33.230Z,20.67
2024-05-09T10:11:34.897Z,20.82
2024-05-09T10:12:33.219Z,20.84
2024-05-09T10:13:32.059Z,20.88
2024-05-09T10:14:31.996Z,21.14
2024-05-09T10:15:32.020Z,21.14
2024-05-09T10:16:32.033Z,21.24
2024-05-09T10:17:32.024Z,21.19
2024-05-09T10:18:34.122Z,21.21
2024-05-09T10:19:32.138Z,21.13
2024-05-09T10:20:32.952Z,21.32
2024-05-09T10:21:31.943Z,21.56
2024-05-09T10:22:31.902Z,21.42
2024-05-09T10:23:31.883Z,21.42
2024-05-09T10:24:31.918Z,21.19
2024-05-09T10:25:31.968Z,21.34
2024-05-09T10:26:31.847Z,21.46
2024-05-09T10:27:31.903Z,21.59
2024-05-09T10:28:31.875Z,21.54
2024-05-09T10:29:31.824Z,21.28
2024-05-09T10:30:35.966Z,21.17
2024-05-09T10:31:31.846Z,21.06
2024-05-09T10:32:31.837Z,21.12
2024-05-09T10:33:31.940Z,21.03
2024-05-09T10:34:31.965Z,20.82
2024-05-09T10:35:31.730Z,20.94
2024-05-09T10:36:31.742Z,21.12
2024-05-09T10:37:31.823Z,21.14
2024-05-09T10:38:31.735Z,21.16
2024-05-09T10:39:31.794Z,21.22
2024-05-09T10:40:32.242Z,21.34
2024-05-09T10:41:31.663Z,21.64
2024-05-09T10:42:31.768Z,21.98
2024-05-09T10:43:31.734Z,21.79
2024-05-09T10:44:31.654Z,21.79
2024-05-09T10:45:31.657Z,21.99
2024-05-09T10:46:31.751Z,21.88
2024-05-09T10:47:31.704Z,21.91
2024-05-09T10:48:31.684Z,21.74
2024-05-09T10:49:31.673Z,21.59
2024-05-09T10:50:34.271Z,21.40
2024-05-09T10:51:31.562Z,21.43
2024-05-09T10:52:31.556Z,21.34
2024-05-09T10:53:31.536Z,21.35
2024-05-09T10:54:31.548Z,21.46
2024-05-09T10:55:31.585Z,21.54
2024-05-09T10:56:31.503Z,21.74
2024-05-09T10:57:31.524Z,21.74
2024-05-09T10:58:31.471Z,21.71
2024-05-09T10:59:31.467Z,21.62
2024-05-09T11:00:35.769Z,21.56
2024-05-09T11:01:31.575Z,21.65
2024-05-09T11:02:31.661Z,21.62
2024-05-09T11:03:31.586Z,21.68
2024-05-09T11:04:31.540Z,21.52
2024-05-09T11:05:31.501Z,21.74
2024-05-09T11:06:31.441Z,21.50
2024-05-09T11:07:31.446Z,21.69
2024-05-09T11:08:31.373Z,21.75
2024-05-09T11:09:31.357Z,21.75
2024-05-09T11:10:33.992Z,21.71
2024-05-09T11:11:31.403Z,21.65
2024-05-09T11:12:31.392Z,21.75
2024-05-09T11:13:31.615Z,22.06
2024-05-09T11:14:31.322Z,21.94
2024-05-09T11:15:31.345Z,21.80
2024-05-09T11:16:31.377Z,21.61
2024-05-09T11:17:31.337Z,21.56
2024-05-09T11:18:35.107Z,21.54
2024-05-09T11:19:32.338Z,21.29
2024-05-09T11:20:34.829Z,21.19
2024-05-09T11:21:31.260Z,21.07
2024-05-09T11:22:31.213Z,21.17
2024-05-09T11:23:31.191Z,21.34
2024-05-09T11:24:31.195Z,21.52
2024-05-09T11:25:31.213Z,21.50
2024-05-09T11:26:31.172Z,21.53
2024-05-09T11:27:31.182Z,21.65
2024-05-09T11:28:31.133Z,21.50
2024-05-09T11:29:31.133Z,21.49
2024-05-09T11:30:32.368Z,21.38
2024-05-09T11:31:31.360Z,21.46
2024-05-09T11:32:31.276Z,21.24
2024-05-09T11:33:31.161Z,21.16
2024-05-09T11:34:31.171Z,21.14
2024-05-09T11:35:31.055Z,21.12
2024-05-09T11:36:31.126Z,21.17
2024-05-09T11:37:34.041Z,21.34
2024-05-09T11:38:31.019Z,21.46
2024-05-09T11:39:31.064Z,21.29
2024-05-09T11:40:34.319Z,21.40
2024-05-09T11:41:31.001Z,21.58
2024-05-09T11:42:31.041Z,21.56
2024-05-09T11:43:31.087Z,21.83
2024-05-09T11:44:30.959Z,21.65
2024-05-09T11:45:31.030Z,21.72
2024-05-09T11:46:30.971Z,21.65
2024-05-09T11:47:39.050Z,21.54
2024-05-09T11:48:31.544Z,21.43
2024-05-09T11:49:30.990Z,21.25
2024-05-09T11:50:35.325Z,21.27
2024-05-09T11:51:31.989Z,21.21
2024-05-09T11:52:30.904Z,21.25
2024-05-09T11:53:30.879Z,21.47
2024-05-09T11:54:30.924Z,21.77
2024-05-09T11:55:31.036Z,22.10
2024-05-09T11:56:30.896Z,22.18
2024-05-09T11:57:30.983Z,22.14
2024-05-09T11:58:30.822Z,22.10
2024-05-09T11:59:30.845Z,22.05
2024-05-09T12:00:36.618Z,21.90
2024-05-09T12:01:32.124Z,21.84
2024-05-09T12:02:30.909Z,22.14
2024-05-09T12:03:30.934Z,22.10
2024-05-09T12:04:30.829Z,22.07
2024-05-09T12:05:30.824Z,21.79
2024-05-09T12:06:30.791Z,21.74
2024-05-09T12:07:30.823Z,21.67
2024-05-09T12:08:30.712Z,21.58
2024-05-09T12:09:30.708Z,21.54
2024-05-09T12:10:33.841Z,21.62
2024-05-09T12:11:31.725Z,21.80
2024-05-09T12:12:30.691Z,21.75
2024-05-09T12:13:30.669Z,21.59
2024-05-09T12:14:30.683Z,21.44
2024-05-09T12:15:30.712Z,21.29
2024-05-09T12:16:30.709Z,21.22
2024-05-09T12:17:30.648Z,21.19
2024-05-09T12:18:30.696Z,21.16
2024-05-09T12:19:30.636Z,21.14
2024-05-09T12:21:30.579Z,21.29
2024-05-09T12:22:30.526Z,21.43
2024-05-09T12:23:30.522Z,21.56
2024-05-09T12:24:30.565Z,21.54
2024-05-09T12:25:30.545Z,21.54
2024-05-09T12:26:30.567Z,21.47
2024-05-09T12:27:30.543Z,21.38
2024-05-09T12:28:30.512Z,21.19
2024-05-09T12:29:30.475Z,21.21
2024-05-09T12:30:36.651Z,21.25
2024-05-09T12:31:31.563Z,21.38
2024-05-09T12:32:30.504Z,21.29
2024-05-09T12:33:30.458Z,21.40
2024-05-09T12:34:30.462Z,21.31
2024-05-09T12:35:30.398Z,21.35
2024-05-09T12:36:30.470Z,21.43
2024-05-09T12:37:30.382Z,21.43
2024-05-09T12:38:30.396Z,21.47
2024-05-09T12:39:30.780Z,21.56
2024-05-09T12:40:36.231Z,21.64
2024-05-09T12:41:31.312Z,21.54
2024-05-09T12:42:32.530Z,21.68
2024-05-09T12:43:30.404Z,21.65
2024-05-09T12:44:30.326Z,21.72
2024-05-09T12:45:30.320Z,21.79
2024-05-09T12:46:30.345Z,21.79
2024-05-09T12:47:30.349Z,21.65
2024-05-09T12:48:30.397Z,21.59
2024-05-09T12:49:30.390Z,21.50
2024-05-09T12:50:33.126Z,21.35
2024-05-09T12:51:30.264Z,21.38
2024-05-09T12:52:30.218Z,21.37
2024-05-09T12:53:30.201Z,21.27
2024-05-09T12:54:30.231Z,21.35
2024-05-09T12:55:36.411Z,21.35
2024-05-09T12:56:31.149Z,21.37
2024-05-09T12:57:30.193Z,21.34
2024-05-09T12:58:30.169Z,21.37
2024-05-09T12:59:30.156Z,21.35
2024-05-09T13:00:33.778Z,21.38
2024-05-09T13:01:30.291Z,21.54
2024-05-09T13:02:30.339Z,21.52
2024-05-09T13:03:30.257Z,21.44
2024-05-09T13:04:30.151Z,21.37
2024-05-09T13:05:30.491Z,21.43
2024-05-09T13:06:30.093Z,21.49
2024-05-09T13:07:30.060Z,21.43
2024-05-09T13:08:30.062Z,21.44
2024-05-09T13:09:30.104Z,21.25